createdAt,value
2019-03-11T00:04:39.134Z,72.50
2019-03-11T00:09:49.977Z,71.30
2019-03-11T00:25:55.858Z,66.00
2019-03-11T00:36:22.025Z,63.20
2019-03-11T00:41:13.388Z,64.70
2019-03-11T00:46:17.001Z,69.90
2019-03-11T00:51:20.999Z,73.90
2019-03-11T00:57:27.041Z,76.90
2019-03-11T01:07:10.544Z,80.30
2019-03-11T01:12:22.218Z,80.80
2019-03-11T01:17:45.532Z,80.70
2019-03-11T01:22:48.874Z,81.20
2019-03-11T01:28:04.565Z,80.80
2019-03-11T01:33:08.470Z,80.40
2019-03-11T01:38:12.105Z,80.60
2019-03-11T01:43:15.720Z,79.70
2019-03-11T01:48:19.364Z,79.20
2019-03-11T01:53:22.995Z,78.90
2019-03-11T01:58:26.643Z,79.50
2019-03-11T02:03:30.323Z,78.30
2019-03-11T02:08:34.936Z,77.80
2019-03-11T02:13:56.392Z,77.70
2019-03-11T02:24:35.911Z,76.40
2019-03-11T02:29:47.775Z,75.40
2019-03-11T02:35:02.746Z,74.40
2019-03-11T02:40:16.009Z,73.70
2019-03-11T02:45:25.512Z,73.70
2019-03-11T02:50:51.585Z,73.30
2019-03-11T02:56:12.745Z,73.20
2019-03-11T03:01:40.059Z,72.40
2019-03-11T03:12:13.337Z,71.80
2019-03-11T03:17:52.987Z,71.20
2019-03-11T03:26:13.455Z,71.00
2019-03-11T03:28:07.918Z,70.00
2019-03-11T03:33:11.707Z,69.50
2019-03-11T03:38:29.516Z,66.80
2019-03-11T03:43:26.786Z,65.20
2019-03-11T03:48:38.288Z,63.80
2019-03-11T03:54:00.137Z,62.30
2019-03-11T03:59:04.557Z,62.80
2019-03-11T04:04:20.994Z,62.70
2019-03-11T04:09:38.946Z,63.70
2019-03-11T04:25:42.832Z,66.10
2019-03-11T04:30:48.698Z,66.50
2019-03-11T04:36:11.032Z,67.20
2019-03-11T04:41:21.646Z,67.20
2019-03-11T04:46:34.054Z,67.90
2019-03-11T04:51:46.385Z,67.90
2019-03-11T04:56:52.245Z,67.40
2019-03-11T05:01:57.446Z,66.60
2019-03-11T05:07:06.220Z,67.80
2019-03-11T05:12:13.382Z,66.80
2019-03-11T05:17:20.834Z,68.00
2019-03-11T05:22:31.710Z,68.50
2019-03-11T05:27:39.428Z,69.60
2019-03-11T05:32:44.929Z,70.10
2019-03-11T05:37:50.906Z,69.50
2019-03-11T05:42:56.069Z,69.00
2019-03-11T05:48:04.781Z,68.30
2019-03-11T05:53:08.467Z,68.90
2019-03-11T05:58:16.334Z,69.00
2019-03-11T06:03:24.058Z,69.00
2019-03-11T06:08:33.003Z,69.30
2019-03-11T06:13:38.401Z,68.60
2019-03-11T06:18:52.922Z,70.10
2019-03-11T06:29:30.755Z,69.30
2019-03-11T06:34:38.114Z,70.00
2019-03-11T06:39:52.596Z,70.70
2019-03-11T06:45:02.672Z,73.30
2019-03-11T06:50:22.467Z,73.60
2019-03-11T07:06:27.515Z,77.60
2019-03-11T07:11:25.624Z,82.60
2019-03-11T07:16:37.962Z,85.00
2019-03-11T07:22:00.109Z,89.50
2019-03-11T07:27:03.785Z,92.20
2019-03-11T07:32:07.440Z,92.70
2019-03-11T07:37:11.179Z,93.20
2019-03-11T07:42:14.879Z,94.70
2019-03-11T07:47:18.654Z,96.00
2019-03-11T07:52:25.838Z,99.90
2019-03-11T07:57:32.705Z,99.90
2019-03-11T08:02:39.396Z,99.90
2019-03-11T08:07:43.034Z,99.30
2019-03-11T08:12:58.134Z,99.20
2019-03-11T08:23:37.829Z,98.60
2019-03-11T08:29:09.358Z,99.90
2019-03-11T08:34:27.701Z,99.90
2019-03-11T08:44:51.639Z,99.90
2019-03-11T08:46:13.108Z,99.90
2019-03-11T08:50:06.902Z,99.90
2019-03-11T08:55:16.245Z,99.90
2019-03-11T09:00:31.851Z,99.90
2019-03-11T09:05:39.778Z,99.90
2019-03-11T09:10:49.090Z,99.90
2019-03-11T09:15:52.990Z,99.90
2019-03-11T09:20:56.992Z,99.90
2019-03-11T09:26:02.652Z,99.90
2019-03-11T09:31:12.054Z,99.90
2019-03-11T09:36:21.827Z,99.90
2019-03-11T09:41:25.485Z,99.90
2019-03-11T09:46:35.235Z,99.90
2019-03-11T09:51:38.847Z,99.90
2019-03-11T10:03:13.189Z,99.90
2019-03-11T10:19:10.546Z,99.90
2019-03-11T10:23:36.099Z,99.90
2019-03-11T10:34:28.674Z,99.90
2019-03-11T10:45:38.825Z,99.90
2019-03-11T10:49:28.039Z,99.90
2019-03-11T10:51:13.087Z,99.90
2019-03-11T11:01:36.171Z,99.90
2019-03-11T11:06:39.761Z,99.90
2019-03-11T11:11:45.111Z,99.90
2019-03-11T11:17:08.035Z,99.90
2019-03-11T11:22:14.096Z,99.90
2019-03-11T11:27:21.628Z,99.90
2019-03-11T11:32:25.295Z,99.90
2019-03-11T11:37:28.924Z,99.90
2019-03-11T11:42:34.845Z,99.90
2019-03-11T11:47:38.532Z,99.90
2019-03-11T11:52:42.218Z,99.90
2019-03-11T11:57:46.182Z,99.90
2019-03-11T12:02:49.894Z,99.90
2019-03-11T12:08:01.170Z,99.90
2019-03-11T12:13:14.720Z,99.90
2019-03-11T12:18:42.718Z,99.90
2019-03-11T12:24:01.257Z,99.90
2019-03-11T12:29:10.673Z,99.90
2019-03-11T12:34:16.118Z,99.90
2019-03-11T12:44:46.948Z,99.90
2019-03-11T12:55:39.817Z,99.90
2019-03-11T13:01:07.169Z,99.90
2019-03-11T13:27:30.668Z,99.90
2019-03-11T13:29:57.733Z,99.90
2019-03-11T13:33:02.608Z,99.90
2019-03-11T13:38:14.817Z,97.60
2019-03-11T13:43:52.445Z,95.80
2019-03-11T13:48:35.975Z,96.90
2019-03-11T13:53:40.688Z,94.40
2019-03-11T13:58:48.215Z,92.80
2019-03-11T14:03:54.084Z,91.10
2019-03-11T14:09:00.851Z,97.90
2019-03-11T14:14:04.514Z,99.70
2019-03-11T14:19:08.127Z,99.90
2019-03-11T14:24:11.831Z,99.90
2019-03-11T14:29:15.934Z,99.90
2019-03-11T14:39:44.518Z,99.70
2019-03-11T14:44:59.816Z,95.90
2019-03-11T14:50:03.588Z,95.50
2019-03-11T14:55:09.285Z,96.70
2019-03-11T15:00:23.152Z,97.90
2019-03-11T15:05:54.662Z,98.00
2019-03-11T15:11:02.743Z,98.70
2019-03-11T15:16:21.566Z,99.40
2019-03-11T15:21:36.589Z,99.90
2019-03-11T15:31:57.890Z,97.70
2019-03-11T15:37:22.645Z,96.10
2019-03-11T15:42:48.887Z,94.00
2019-03-11T16:03:43.316Z,82.70
2019-03-11T16:08:47.080Z,84.00
2019-03-11T16:13:50.772Z,82.50
2019-03-11T16:18:54.454Z,85.30
2019-03-11T16:23:58.072Z,87.50
2019-03-11T16:29:01.912Z,88.70
2019-03-11T16:34:07.706Z,87.30
2019-03-11T16:39:11.904Z,85.00
2019-03-11T16:44:15.871Z,88.50
2019-03-11T16:49:19.702Z,90.90
2019-03-11T16:54:23.549Z,92.30
2019-03-11T16:59:27.488Z,93.60
2019-03-11T17:04:31.215Z,94.80
2019-03-11T17:09:35.214Z,96.00
2019-03-11T17:14:39.137Z,97.00
2019-03-11T17:19:42.989Z,97.80
2019-03-11T17:24:46.921Z,98.50
2019-03-11T17:29:50.678Z,99.90
2019-03-11T17:34:54.775Z,99.70
2019-03-11T17:39:58.390Z,99.90
2019-03-11T17:45:02.366Z,99.90
2019-03-11T17:50:12.081Z,99.90
2019-03-11T17:55:18.000Z,99.90
2019-03-11T18:00:54.515Z,99.90
2019-03-11T18:05:50.119Z,99.90
2019-03-11T18:10:54.037Z,99.90
2019-03-11T18:15:57.921Z,99.90
2019-03-11T18:21:01.961Z,99.90
2019-03-11T18:26:05.775Z,99.90
2019-03-11T18:31:10.464Z,99.90
2019-03-11T18:36:14.282Z,99.90
2019-03-11T18:41:18.208Z,99.90
2019-03-11T18:46:22.081Z,99.90
2019-03-11T18:51:25.928Z,99.90
2019-03-11T18:56:30.091Z,99.90
2019-03-11T19:01:34.077Z,99.90
2019-03-11T19:06:37.906Z,99.90
2019-03-11T19:11:41.599Z,99.90
2019-03-11T19:16:45.446Z,99.90
2019-03-11T19:21:49.278Z,99.90
2019-03-11T19:26:55.584Z,99.90
2019-03-11T19:31:58.648Z,99.90
2019-03-11T19:37:02.508Z,99.90
2019-03-11T19:42:06.544Z,99.90
2019-03-11T19:47:10.499Z,99.90
2019-03-11T19:52:14.451Z,99.90
2019-03-11T19:57:18.181Z,99.90
2019-03-11T20:02:24.184Z,99.90
2019-03-11T20:07:30.220Z,99.90
2019-03-11T20:12:32.913Z,99.90
2019-03-11T20:17:36.821Z,99.90
2019-03-11T20:22:40.640Z,99.90
2019-03-11T20:27:44.554Z,99.90
2019-03-11T20:32:48.283Z,99.90
2019-03-11T20:37:52.279Z,99.90
2019-03-11T20:42:55.979Z,99.90
2019-03-11T20:47:59.753Z,99.90
2019-03-11T20:53:05.630Z,99.90
2019-03-11T20:58:09.921Z,99.90
2019-03-11T21:03:13.991Z,99.90
2019-03-11T21:08:17.917Z,99.90
2019-03-11T21:13:22.059Z,99.90
2019-03-11T21:18:26.006Z,99.90
2019-03-11T21:23:30.361Z,99.90
2019-03-11T21:28:34.468Z,99.90
2019-03-11T21:33:38.316Z,99.90
2019-03-11T21:38:42.075Z,99.90
2019-03-11T21:43:46.242Z,99.90
2019-03-11T21:48:50.003Z,99.90
2019-03-11T21:53:53.855Z,99.90
2019-03-11T21:58:57.644Z,99.90
2019-03-11T22:04:01.229Z,99.90
2019-03-11T22:09:06.826Z,99.90
2019-03-11T22:14:10.501Z,99.90
2019-03-11T22:19:14.125Z,99.90
2019-03-11T22:24:17.743Z,99.90
2019-03-11T22:29:24.402Z,99.90
2019-03-11T22:34:34.755Z,99.90
2019-03-11T22:39:38.597Z,99.90
2019-03-11T22:44:42.247Z,99.90
2019-03-11T22:49:46.178Z,99.90
2019-03-11T22:54:49.826Z,99.90
2019-03-11T22:59:53.504Z,99.90
2019-03-11T23:04:57.284Z,99.90
2019-03-11T23:10:01.006Z,99.90
2019-03-11T23:15:07.000Z,99.90
2019-03-11T23:20:10.955Z,99.60
2019-03-11T23:25:14.755Z,98.40
2019-03-11T23:30:18.547Z,97.50
2019-03-11T23:35:22.490Z,98.20
2019-03-11T23:40:26.254Z,98.00
2019-03-11T23:45:32.753Z,98.00
2019-03-11T23:50:39.316Z,98.40
2019-03-11T23:55:43.087Z,98.70
